Warning: Javascript must be enabled to use all the features on this page!


Page Loading - Please Wait...

Click to hideNews Bulletins
Click to hide state-specific text

USGS 02087570 NEUSE RIVER AT SMITHFIELD, NC

PROVISIONAL DATA SUBJECT TO REVISION

Click to hidestation-specific text
Corps of Engineers Logo This station is operated in cooperation with the U.S. Army Corps of Engineers.

Forecasts for gage height (stage) are available for this station through the National Weather Service's River Forecast Center.

Boating safety tips
This station managed by the South Atlantic WSC Raleigh Field Office.

Available Parameters Available Period
All 2 Available Parameters for this site
  
00060 Discharge 1985-10-01  1991-09-30
00065 Gage height 2007-10-01  2018-04-25

Graph
Graph w/ stats
Graph w/o stats
Graph w/ (up to 3) parms
Table
Tab-separated
Days  (7)
 

  -- or --
Begin date
 

End date
 

Summary of all available data for this site
Instantaneous-data availability statement
Gage height, feet
TIMEApr 18Apr 19Apr 20Apr 21Apr 22Apr 23Apr 24Apr 25
00:00 EDT12.23P  13.40P  13.99P  14.20P  14.06P  12.31P  9.19P  9.22P  
00:15 EDT12.21P  13.41P  13.99P  14.20P  14.06P  12.28P  9.18P  9.26P  
00:30 EDT12.18P  13.42P  14.01P  14.19P  14.04P  12.25P  9.17P  9.31P  
00:45 EDT12.16P  13.43P  13.99P  14.19P  14.06P  12.23P  9.16P  9.36P  
01:00 EDT12.15P  13.45P  14.00P  14.21P  14.05P  12.20P  9.15P  9.40P  
01:15 EDT12.12P  13.45P  14.00P  14.20P  14.03P  12.17P  9.13P  9.45P  
01:30 EDT12.10P  13.47P  14.01P  14.21P  14.02P  12.14P  9.12P  9.49P  
01:45 EDT12.08P  13.48P  14.02P  14.21P  14.02P  12.11P  9.11P  9.54P  
02:00 EDT12.07P  13.50P  14.01P  14.21P  14.00P  12.08P  9.10P  9.58P  
02:15 EDT12.06P  13.52P  14.02P  14.21P  14.01P  12.06P  9.08P  9.62P  
02:30 EDT12.03P  13.52P  14.02P  14.22P  14.00P  12.03P  9.07P  9.65P  
02:45 EDT12.02P  13.54P  14.02P  14.22P  14.00P  12.00P  9.06P  9.70P  
03:00 EDT12.01P  13.53P  14.04P  14.22P  13.99P  11.98P  9.05P  9.73P  
03:15 EDT11.99P  13.55P  14.03P  14.21P  13.98P  11.94P  9.04P  9.76P  
03:30 EDT11.99P  13.56P  14.04P  14.23P  13.96P  11.91P  9.03P  9.80P  
03:45 EDT11.97P  13.56P  14.04P  14.22P  13.97P  11.88P  9.03P  9.83P  
04:00 EDT11.97P  13.57P  14.05P  14.22P  13.95P  11.85P  9.01P  9.86P  
04:15 EDT11.96P  13.58P  14.05P  14.23P  13.95P  11.83P  9.01P  9.89P  
04:30 EDT11.95P  13.59P  14.06P  14.24P  13.94P  11.79P  8.99P  9.93P  
04:45 EDT11.95P  13.59P  14.06P  14.23P  13.93P  11.75P  8.99P  9.96P  
05:00 EDT11.95P  13.60P  14.07P  14.24P  13.92P  11.74P  8.98P  9.99P  
05:15 EDT11.95P  13.61P  14.06P  14.24P  13.92P  11.70P  8.97P  10.01P  
05:30 EDT11.95P  13.60P  14.07P  14.24P  13.92P  11.67P  8.96P  10.05P  
05:45 EDT11.96P  13.62P  14.08P  14.24P  13.89P  11.63P  8.96P  10.06P  
06:00 EDT11.96P  13.63P  14.08P  14.24P  13.87P  11.60P  8.95P  10.10P  
06:15 EDT11.96P  13.64P  14.08P  14.24P  13.87P  11.57P  8.94P  10.12P  
06:30 EDT11.97P  13.65P  14.07P  14.24P  13.85P  11.53P  8.94P  10.14P  
06:45 EDT11.98P  13.65P  14.08P  14.25P  13.85P  11.49P  8.93P  10.17P  
07:00 EDT11.99P  13.66P  14.09P  14.25P  13.83P  11.46P  8.92P  10.17P  
07:15 EDT12.00P  13.67P  14.09P  14.24P  13.82P  11.42P  8.92P  10.21P  
07:30 EDT12.01P  13.68P  14.08P  14.25P  13.81P  11.38P  8.90P  10.21P  
07:45 EDT12.03P  13.68P  14.10P  14.25P  13.79P  11.35P  8.89P  10.25P  
08:00 EDT12.05P  13.69P  14.09P  14.26P  13.78P  11.32P  8.89P  10.26P  
08:15 EDT12.06P  13.70P  14.10P  14.26P  13.76P  11.29P  8.90P  10.27P  
08:30 EDT12.08P  13.71P  14.11P  14.25P  13.74P  11.24P  8.89P  10.29P  
08:45 EDT12.10P  13.71P  14.11P  14.25P  13.72P  11.22P  8.87P  10.30P  
09:00 EDT12.11P  13.72P  14.10P  14.25P  13.72P  11.17P  8.87P  10.31P  
09:15 EDT12.15P  13.74P  14.10P  14.27P  13.70P  11.15P  8.87P  10.33P  
09:30 EDT12.16P  13.75P  14.10P  14.26P  13.70P  11.11P  8.86P  10.35P  
09:45 EDT12.18P  13.76P  14.12P  14.27P  13.69P  11.08P  8.86P  10.35P  
10:00 EDT12.21P  13.78P  14.13P  14.26P  13.68P  11.04P  8.86P  10.36P  
10:15 EDT12.24P  13.78P  14.12P  14.29P  13.66P  11.00P  8.85P  10.37P  
10:30 EDT12.26P  13.79P  14.13P  14.27P  13.65P  10.96P  8.83P   
10:45 EDT12.29P  13.80P  14.15P  14.29P  13.63P  10.93P  8.81P   
11:00 EDT12.32P  13.80P  14.14P  14.29P  13.62P  10.88P  8.80P   
11:15 EDT12.37P  13.81P  14.16P  14.29P  13.62P  10.84P  8.80P   
11:30 EDT12.38P  13.82P  14.17P  14.30P  13.58P  10.80P  8.78P   
11:45 EDT12.42P  13.83P  14.17P  14.31P  13.55P  10.76P  8.78P   
12:00 EDT12.45P  13.83P  14.18P  14.31P  13.55P  10.72P  8.77P   
12:15 EDT12.46P  13.83P  14.17P  14.30P  13.53P  10.67P  8.76P   
12:30 EDT12.50P  13.85P  14.19P  14.28P  13.50P  10.63P  8.76P   
12:45 EDT12.52P  13.84P  14.18P  14.29P  13.48P  10.59P  8.76P   
13:00 EDT12.56P  13.85P  14.18P  14.30P  13.47P  10.55P  8.76P   
13:15 EDT12.59P  13.87P  14.19P  14.30P  13.45P  10.50P  8.75P   
13:30 EDT12.60P  13.86P  14.20P  14.30P  13.42P  10.46P  8.74P   
13:45 EDT12.65P  13.87P  14.20P  14.30P  13.39P  10.42P  8.74P   
14:00 EDT12.66P  13.88P  14.20P  14.30P  13.36P  10.38P  8.74P   
14:15 EDT12.68P  13.89P  14.20P  14.29P  13.35P  10.33P  8.74P   
14:30 EDT12.72P  13.89P  14.20P  14.29P  13.34P  10.30P  8.74P   
14:45 EDT12.74P  13.89P  14.21P  14.29P  13.31P  10.26P  8.74P   
15:00 EDT12.77P  13.90P  14.21P  14.31P  13.29P  10.23P  8.74P   
15:15 EDT12.79P  13.90P  14.21P  14.29P  13.28P  10.18P  8.74P   
15:30 EDT12.81P  13.91P  14.21P  14.30P  13.25P  10.14P  8.74P   
15:45 EDT12.83P  13.92P  14.20P  14.30P  13.22P  10.10P  8.73P   
16:00 EDT12.86P  13.92P  14.21P  14.30P  13.20P  10.06P  8.73P   
16:15 EDT12.89P  13.91P  14.21P  14.29P  13.17P  10.01P  8.72P   
16:30 EDT12.90P  13.93P  14.22P  14.28P  13.14P  9.98P  8.72P   
16:45 EDT12.92P  13.95P  14.22P  14.28P  13.12P  9.94P  8.71P   
17:00 EDT12.92P  13.94P  14.24P  14.28P  13.08P  9.90P  8.71P   
17:15 EDT12.97P  13.93P  14.23P  14.28P  13.06P  9.87P  8.71P   
17:30 EDT12.99P  13.94P  14.23P  14.29P  13.02P  9.83P  8.69P   
17:45 EDT13.01P  13.94P  14.24P  14.27P  12.99P  9.79P  8.69P   
18:00 EDT13.04P  13.94P  14.23P  14.26P  12.96P  9.77P  8.69P   
18:15 EDT13.06P  13.95P  14.24P  14.26P  12.92P  9.73P  8.68P   
18:30 EDT13.08P  13.95P  14.24P  14.25P  12.90P  9.69P  8.67P   
18:45 EDT13.11P  13.95P  14.23P  14.26P  12.88P  9.66P  8.67P   
19:00 EDT13.12P  13.95P  14.22P  14.23P  12.85P  9.63P  8.68P   
19:15 EDT13.14P  13.95P  14.22P  14.21P  12.83P  9.60P  8.68P   
19:30 EDT13.14P  13.95P  14.23P  14.20P  12.80P  9.56P  8.69P   
19:45 EDT13.16P  13.96P  14.20P  14.19P  12.76P  9.54P  8.69P   
20:00 EDT13.18P  13.95P  14.22P  14.18P  12.73P  9.51P  8.70P   
20:15 EDT13.19P  13.96P  14.20P  14.17P  12.71P  9.48P  8.72P   
20:30 EDT13.21P  13.95P  14.21P  14.17P  12.69P  9.45P  8.74P   
20:45 EDT13.21P  13.95P  14.21P  14.16P  12.66P  9.43P  8.75P   
21:00 EDT13.23P  13.95P  14.20P  14.16P  12.63P  9.40P  8.77P   
21:15 EDT13.23P  13.95P  14.21P  14.15P  12.62P  9.39P  8.80P   
21:30 EDT13.26P  13.96P  14.20P  14.14P  12.58P  9.36P  8.83P   
21:45 EDT13.27P  13.95P  14.20P  14.12P  12.54P  9.34P  8.85P   
22:00 EDT13.29P  13.96P  14.20P  14.11P  12.52P  9.33P  8.88P   
22:15 EDT13.30P  13.96P  14.19P  14.10P  12.50P  9.31P  8.92P   
22:30 EDT13.31P  13.97P  14.18P  14.10P  12.48P  9.28P  8.96P   
22:45 EDT13.32P  13.96P  14.20P  14.10P  12.45P  9.27P  9.00P   
23:00 EDT13.35P  13.98P  14.20P  14.10P  12.42P  9.26P  9.04P   
23:15 EDT13.36P  13.98P  14.19P  14.09P  12.38P  9.24P  9.08P   
23:30 EDT13.37P  13.96P  14.19P  14.09P  12.36P  9.22P  9.13P   
23:45 EDT13.39P  13.99P  14.20P  14.07P  12.34P  9.21P  9.18P   
COUNT9696969696969642
MAX13.3913.9914.2414.3114.0612.319.1910.37
MIN11.9513.4013.9914.0712.349.218.679.22

Explanation
  P  Provisional data subject to revision.